Budapest Bridge — VRIZ5 — position and weather

sailwx.info

Track history (hours):
 
Tides and Currents Weather Stations Pressure Air Temp Water Temp Dewpoint Dewpoint Depression Visibility Wind Speed Wind Dir Waves Ship Positions

Budapest Bridge

Last reported at 2017-Feb-22 22:33 UTC. Time now 2017-Feb-27 20:36 UTC.
Position N 01°15' E 104°04'.

Length 268 m; draft 12.1 m.

Type: Cargo ship. MMSI: 477434200.

Date/timePositionNaut miles runAvg speedWind from/ knotsBaromVisibWave heightAir tempDewpointWater temp
2017-Feb-22 22:33N 01°15' E 104°04'1212.4
2017-Feb-22 21:33N 01°12' E 103°52'7 6.9
2017-Feb-22 20:33N 01°16' E 103°47'0 0.3
2017-Feb-22 19:33N 01°17' E 103°47'0 0.0
2017-Feb-22 18:33N 01°17' E 103°47'0 0.0
2017-Feb-22 17:33N 01°17' E 103°47'0 0.0
2017-Feb-22 16:33N 01°17' E 103°47'0 0.0
2017-Feb-22 15:33N 01°17' E 103°47'0 0.0
2017-Feb-22 14:33N 01°17' E 103°47'0 0.0
2017-Feb-22 13:33N 01°17' E 103°47'0 0.0
2017-Feb-22 12:33N 01°17' E 103°47'0 0.0
2017-Feb-22 11:33N 01°17' E 103°47'0 0.0
2017-Feb-22 10:33N 01°17' E 103°47'0 0.0
2017-Feb-22 09:33N 01°17' E 103°47'0 0.0
2017-Feb-22 08:33N 01°17' E 103°47'0 0.0
2017-Feb-22 07:33N 01°17' E 103°47'0 0.0
2017-Feb-22 06:33N 01°17' E 103°47'0 0.0
2017-Feb-22 05:30N 01°17' E 103°47'0 0.0
2017-Feb-22 04:33N 01°17' E 103°47'0 0.0
2017-Feb-22 03:33N 01°17' E 103°47'2 2.1
2017-Feb-22 02:34N 01°15' E 103°47'3 3.4
2017-Feb-22 01:33N 01°16' E 103°50'0 0.1
2017-Feb-22 00:29N 01°16' E 103°50'0 0.1
2017-Feb-21 23:32N 01°16' E 103°50'0 0.1
2017-Feb-21 22:32N 01°16' E 103°50'0 0.1
2017-Feb-21 21:29N 01°16' E 103°50'0 0.0
2017-Feb-21 20:32N 01°16' E 103°50'0 0.0
2017-Feb-21 19:32N 01°16' E 103°50'0 0.0
2017-Feb-21 18:32N 01°16' E 103°50'0 0.1
2017-Feb-21 17:29N 01°16' E 103°50'0 0.1
2017-Feb-21 16:17N 01°16' E 103°50'0 0.0
2017-Feb-21 15:32N 01°16' E 103°50'0 0.0
2017-Feb-21 14:29N 01°16' E 103°50'0 0.0
2017-Feb-21 13:29N 01°16' E 103°50'0 0.1
2017-Feb-21 12:32N 01°16' E 103°50'0 0.1
2017-Feb-21 11:32N 01°16' E 103°50'0 0.0
2017-Feb-21 10:32N 01°16' E 103°50'0 0.0
2017-Feb-21 09:32N 01°16' E 103°50'0 0.0
2017-Feb-21 08:29N 01°16' E 103°50'0 0.0
2017-Feb-21 07:29N 01°16' E 103°50'2 1.9
2017-Feb-21 06:33N 01°15' E 103°52'6 5.6
2017-Feb-21 05:33N 01°15' E 103°57'  
2017-Feb-16 19:33N 01°21' E 104°25'1917.5
2017-Feb-16 18:29N 01°16' E 104°08'1516.0
2017-Feb-16 17:34N 01°13' E 103°53'5 4.5
2017-Feb-16 16:33N 01°16' E 103°50'0 0.3
2017-Feb-16 15:32N 01°16' E 103°50'0 0.1
2017-Feb-16 14:23N 01°16' E 103°50'0 0.0
2017-Feb-16 13:32N 01°16' E 103°50'0 0.0
2017-Feb-16 12:29N 01°16' E 103°50'0 0.0
2017-Feb-16 11:32N 01°16' E 103°50'0 0.0
2017-Feb-16 10:29N 01°16' E 103°50'0 0.0
2017-Feb-16 09:32N 01°16' E 103°50'0 0.0
2017-Feb-16 08:32N 01°16' E 103°50'0 0.0
2017-Feb-16 07:32N 01°16' E 103°50'0 0.0
2017-Feb-16 06:32N 01°16' E 103°50'0 0.0
2017-Feb-16 05:32N 01°16' E 103°50'0 0.0
2017-Feb-16 04:33N 01°16' E 103°50'0 0.0
2017-Feb-16 03:33N 01°16' E 103°50'0 0.0
2017-Feb-16 02:30N 01°16' E 103°50'0 0.0
2017-Feb-16 01:33N 01°16' E 103°50'2 1.9
2017-Feb-16 00:33N 01°15' E 103°52'3 2.7
2017-Feb-15 23:33N 01°13' E 103°51'6 5.7
2017-Feb-15 22:33N 01°16' E 103°47'1 0.8
2017-Feb-15 21:32N 01°16' E 103°47'0 0.0
2017-Feb-15 20:32N 01°16' E 103°47'0 0.0
2017-Feb-15 19:32N 01°16' E 103°47'0 0.0
2017-Feb-15 18:29N 01°16' E 103°47'0 0.0
2017-Feb-15 17:32N 01°16' E 103°47'0 0.0
2017-Feb-15 16:29N 01°16' E 103°47'0 0.0
2017-Feb-15 15:32N 01°16' E 103°47'0 0.0
2017-Feb-15 14:32N 01°16' E 103°47'0 0.0
2017-Feb-15 13:32N 01°16' E 103°47'0 0.0
2017-Feb-15 12:32N 01°16' E 103°47'0 0.0
2017-Feb-15 11:32N 01°16' E 103°47'0 0.0
2017-Feb-15 10:32N 01°16' E 103°47'0 0.0
2017-Feb-15 09:32N 01°16' E 103°47'0 0.0
2017-Feb-15 08:32N 01°16' E 103°47'0 0.0
2017-Feb-15 07:32N 01°16' E 103°47'0 0.0
2017-Feb-15 06:32N 01°16' E 103°47'0 0.0
2017-Feb-15 05:32N 01°16' E 103°47'1 0.7
2017-Feb-15 04:34N 01°16' E 103°47'7 6.8
2017-Feb-15 03:33N 01°13' E 103°53'1111.4
2017-Feb-15 02:33N 01°16' E 104°04'1413.4
2017-Feb-15 01:31N 01°18' E 104°18'  
Track history (hours):
 
Tides and Currents Weather Stations Pressure Air Temp Water Temp Dewpoint Dewpoint Depression Visibility Wind Speed Wind Dir Waves Ship Positions

Budapest Bridge

Last reported at 2017-Feb-22 22:33 UTC. Time now 2017-Feb-27 20:36 UTC.
Position N 01°15' E 104°04'.

Length 268 m; draft 12.1 m.

Type: Cargo ship. MMSI: 477434200.

Date/timePositionNaut miles runAvg speedWind from/ knotsBaromVisibWave heightAir tempDewpointWater temp
2017-Feb-22 22:33N 01°15' E 104°04'1212.4
2017-Feb-22 21:33N 01°12' E 103°52'7 6.9
2017-Feb-22 20:33N 01°16' E 103°47'0 0.3
2017-Feb-22 19:33N 01°17' E 103°47'0 0.0
2017-Feb-22 18:33N 01°17' E 103°47'0 0.0
2017-Feb-22 17:33N 01°17' E 103°47'0 0.0
2017-Feb-22 16:33N 01°17' E 103°47'0 0.0
2017-Feb-22 15:33N 01°17' E 103°47'0 0.0
2017-Feb-22 14:33N 01°17' E 103°47'0 0.0
2017-Feb-22 13:33N 01°17' E 103°47'0 0.0
2017-Feb-22 12:33N 01°17' E 103°47'0 0.0
2017-Feb-22 11:33N 01°17' E 103°47'0 0.0
2017-Feb-22 10:33N 01°17' E 103°47'0 0.0
2017-Feb-22 09:33N 01°17' E 103°47'0 0.0
2017-Feb-22 08:33N 01°17' E 103°47'0 0.0
2017-Feb-22 07:33N 01°17' E 103°47'0 0.0
2017-Feb-22 06:33N 01°17' E 103°47'0 0.0
2017-Feb-22 05:30N 01°17' E 103°47'0 0.0
2017-Feb-22 04:33N 01°17' E 103°47'0 0.0
2017-Feb-22 03:33N 01°17' E 103°47'2 2.1
2017-Feb-22 02:34N 01°15' E 103°47'3 3.4
2017-Feb-22 01:33N 01°16' E 103°50'0 0.1
2017-Feb-22 00:29N 01°16' E 103°50'0 0.1
2017-Feb-21 23:32N 01°16' E 103°50'0 0.1
2017-Feb-21 22:32N 01°16' E 103°50'0 0.1
2017-Feb-21 21:29N 01°16' E 103°50'0 0.0
2017-Feb-21 20:32N 01°16' E 103°50'0 0.0
2017-Feb-21 19:32N 01°16' E 103°50'0 0.0
2017-Feb-21 18:32N 01°16' E 103°50'0 0.1
2017-Feb-21 17:29N 01°16' E 103°50'0 0.1
2017-Feb-21 16:17N 01°16' E 103°50'0 0.0
2017-Feb-21 15:32N 01°16' E 103°50'0 0.0
2017-Feb-21 14:29N 01°16' E 103°50'0 0.0
2017-Feb-21 13:29N 01°16' E 103°50'0 0.1
2017-Feb-21 12:32N 01°16' E 103°50'0 0.1
2017-Feb-21 11:32N 01°16' E 103°50'0 0.0
2017-Feb-21 10:32N 01°16' E 103°50'0 0.0
2017-Feb-21 09:32N 01°16' E 103°50'0 0.0
2017-Feb-21 08:29N 01°16' E 103°50'0 0.0
2017-Feb-21 07:29N 01°16' E 103°50'2 1.9
2017-Feb-21 06:33N 01°15' E 103°52'6 5.6
2017-Feb-21 05:33N 01°15' E 103°57'  
2017-Feb-16 19:33N 01°21' E 104°25'1917.5
2017-Feb-16 18:29N 01°16' E 104°08'1516.0
2017-Feb-16 17:34N 01°13' E 103°53'5 4.5
2017-Feb-16 16:33N 01°16' E 103°50'0 0.3
2017-Feb-16 15:32N 01°16' E 103°50'0 0.1
2017-Feb-16 14:23N 01°16' E 103°50'0 0.0
2017-Feb-16 13:32N 01°16' E 103°50'0 0.0
2017-Feb-16 12:29N 01°16' E 103°50'0 0.0
2017-Feb-16 11:32N 01°16' E 103°50'0 0.0
2017-Feb-16 10:29N 01°16' E 103°50'0 0.0
2017-Feb-16 09:32N 01°16' E 103°50'0 0.0
2017-Feb-16 08:32N 01°16' E 103°50'0 0.0
2017-Feb-16 07:32N 01°16' E 103°50'0 0.0
2017-Feb-16 06:32N 01°16' E 103°50'0 0.0
2017-Feb-16 05:32N 01°16' E 103°50'0 0.0
2017-Feb-16 04:33N 01°16' E 103°50'0 0.0
2017-Feb-16 03:33N 01°16' E 103°50'0 0.0
2017-Feb-16 02:30N 01°16' E 103°50'0 0.0
2017-Feb-16 01:33N 01°16' E 103°50'2 1.9
2017-Feb-16 00:33N 01°15' E 103°52'3 2.7
2017-Feb-15 23:33N 01°13' E 103°51'6 5.7
2017-Feb-15 22:33N 01°16' E 103°47'1 0.8
2017-Feb-15 21:32N 01°16' E 103°47'0 0.0
2017-Feb-15 20:32N 01°16' E 103°47'0 0.0
2017-Feb-15 19:32N 01°16' E 103°47'0 0.0
2017-Feb-15 18:29N 01°16' E 103°47'0 0.0
2017-Feb-15 17:32N 01°16' E 103°47'0 0.0
2017-Feb-15 16:29N 01°16' E 103°47'0 0.0
2017-Feb-15 15:32N 01°16' E 103°47'0 0.0
2017-Feb-15 14:32N 01°16' E 103°47'0 0.0
2017-Feb-15 13:32N 01°16' E 103°47'0 0.0
2017-Feb-15 12:32N 01°16' E 103°47'0 0.0
2017-Feb-15 11:32N 01°16' E 103°47'0 0.0
2017-Feb-15 10:32N 01°16' E 103°47'0 0.0
2017-Feb-15 09:32N 01°16' E 103°47'0 0.0
2017-Feb-15 08:32N 01°16' E 103°47'0 0.0
2017-Feb-15 07:32N 01°16' E 103°47'0 0.0
2017-Feb-15 06:32N 01°16' E 103°47'0 0.0
2017-Feb-15 05:32N 01°16' E 103°47'1 0.7
2017-Feb-15 04:34N 01°16' E 103°47'7 6.8
2017-Feb-15 03:33N 01°13' E 103°53'1111.4
2017-Feb-15 02:33N 01°16' E 104°04'1413.4
2017-Feb-15 01:31N 01°18' E 104°18'  

Dump ship's entire track history